Flight Track Log - Related Links

Times and Time Zones

All times are in EDT time to prevent confusion due to time zone crossing. See the SWA2236 flight status page for this flight to view local times or setup timezone preferences in your user account.

Time Position Orientation Groundspeed Altitude Reporting Facility
EDT Latitude Longitude Course Direction KTS MPH feet Rate Location/Type
Fri 02:47:06 PM 36.0767 -115.1706 270° West 176 203 3,200  Level Los Angeles Center
Fri 02:47:42 PM 36.0767 -115.2106 270° West 188 216 4,400 2,041 Climbing Los Angeles Center
Fri 02:48:43 PM 36.0400 -115.2706 233° Southwest 241 277 6,500 2,361 Climbing Los Angeles Center
Fri 02:49:44 PM 35.9633 -115.2956 195° South 291 335 9,200 2,505 Climbing Los Angeles Center
Fri 02:50:14 PM 35.9328 -115.2747 151° Southeast 272 313 10,300 2,674 Climbing Los Angeles Center
Fri 02:51:16 PM 35.8642 -115.2108 143° Southeast 298 343 13,300 2,516 Climbing Los Angeles Center
Fri 02:52:18 PM 35.8469 -115.1139 102° East 334 384 15,500 2,516 Climbing Los Angeles Center
Fri 02:53:20 PM 35.8958 -115.0167 58° Northeast 333 383 18,500 2,074 Climbing Los Angeles Center
Fri 02:54:34 PM 35.9736 -114.8633 58° Northeast 383 441 20,200 1,478 Climbing Los Angeles Center
Fri 02:55:38 PM 36.0336 -114.7442 58° Northeast 407 468 21,900 1,728 Climbing Los Angeles Center
Fri 02:56:39 PM 36.0944 -114.6208 59° Northeast 417 480 23,800 1,610 Climbing Los Angeles Center
Fri 02:57:41 PM 36.1414 -114.4894 66° East 425 489 25,200 1,161 Climbing Los Angeles Center
Fri 02:58:43 PM 36.1044 -114.3858 114° Southeast 410 472 26,200 1,104 Climbing Los Angeles Center
Fri 02:59:46 PM 36.0344 -114.1967 115° Southeast 431 496 27,500 1,238 Climbing Los Angeles Center
Fri 03:00:49 PM 35.9814 -114.0550 115° Southeast 447 514 28,800 1,296 Climbing Los Angeles Center
Fri 03:01:51 PM 35.9278 -113.9117 115° Southeast 454 522 30,200 1,317 Climbing Los Angeles Center
Fri 03:02:52 PM 35.9047 -113.7861 103° East 466 536 31,500 1,368 Climbing Los Angeles Center
Fri 03:04:07 PM 35.8758 -113.5994 101° East 463 533 33,300 1,445 Climbing Los Angeles Center
Fri 03:05:09 PM 35.8464 -113.4156 101° East 462 532 34,800 1,200 Climbing Los Angeles Center
Fri 03:06:12 PM 35.8172 -113.2317 101° East 459 528 35,800 1,056 Climbing Los Angeles Center
Fri 03:07:14 PM 35.7922 -113.0808 102° East 453 521 37,000 581 Climbing Los Angeles Center
Fri 03:08:16 PM 35.7689 -112.9325 101° East 445 512 37,000  Level Los Angeles Center
Fri 03:09:18 PM 35.7442 -112.7831 101° East 444 511 37,000  Level Los Angeles Center
Fri 03:10:20 PM 35.7197 -112.6339 101° East 445 512 37,000  Level Los Angeles Center
Fri 03:11:22 PM 35.6939 -112.4864 102° East 442 509 37,000  Level Los Angeles Center
Fri 03:12:24 PM 35.6636 -112.3083 102° East 444 511 37,000  Level Los Angeles Center
Fri 03:13:27 PM 35.6386 -112.1617 102° East 440 506 37,000  Level Los Angeles Center
Fri 03:14:29 PM 35.6139 -112.0144 102° East 441 507 37,000  Level Los Angeles Center
Fri 03:15:31 PM 35.5900 -111.8697 101° East 435 501 37,000  Level Los Angeles Center
Fri 03:16:33 PM 35.5875 -111.7189 91° East 440 506 37,000  Level Los Angeles Center
Fri 03:17:35 PM 35.5833 -111.5678 92° East 445 512 37,000  Level Los Angeles Center
Fri 03:18:37 PM 35.5775 -111.3881 92° East 443 510 37,000  Level Los Angeles Center
Fri 03:19:59 PM 35.5706 -111.1833 92° East 441 507 37,000  Level Albuquerque Center
Fri 03:21:01 PM 35.5661 -111.0383 92° East 443 510 37,000  Level Albuquerque Center
Fri 03:22:03 PM 35.5603 -110.8717 92° East 440 506 37,000  Level Albuquerque Center
Fri 03:23:05 PM 35.5564 -110.7286 92° East 438 504 37,000  Level Albuquerque Center
Fri 03:24:06 PM 35.5494 -110.5597 93° East 442 509 37,000  Level Albuquerque Center
Fri 03:25:08 PM 35.5456 -110.4167 92° East 440 506 37,000  Level Albuquerque Center
Fri 03:26:10 PM 35.5383 -110.2475 93° East 443 510 37,000  Level Albuquerque Center
Fri 03:27:12 PM 35.5325 -110.1022 93° East 445 512 37,000  Level Albuquerque Center
Fri 03:28:13 PM 35.5267 -109.9569 93° East 446 513 37,000  Level Albuquerque Center
Fri 03:29:15 PM 35.5197 -109.7858 93° East 449 517 37,000  Level Albuquerque Center
Fri 03:30:17 PM 35.5133 -109.6381 93° East 451 519 37,000  Level Albuquerque Center
Fri 03:31:19 PM 35.5061 -109.4644 93° East 455 524 37,000  Level Albuquerque Center
Fri 03:32:20 PM 35.4978 -109.3169 94° East 455 524 37,000  Level Albuquerque Center
Fri 03:33:22 PM 35.4892 -109.1461 93° East 453 521 37,000  Level Albuquerque Center
Fri 03:34:24 PM 35.4828 -108.9986 93° East 453 521 37,000  Level Albuquerque Center
Fri 03:35:26 PM 35.4778 -108.8292 92° East 450 518 37,000  Level Albuquerque Center
Fri 03:36:28 PM 35.4892 -108.6833 84° East 451 519 37,000  Level Albuquerque Center
Fri 03:37:29 PM 35.5036 -108.5117 84° East 453 521 37,000  Level Albuquerque Center
Fri 03:38:31 PM 35.5353 -108.3683 75° East 456 525 37,000  Level Albuquerque Center
Fri 03:39:33 PM 35.5719 -108.2008 75° East 457 526 37,000  Level Albuquerque Center
Fri 03:40:35 PM 35.6025 -108.0572 75° East 456 525 37,000  Level Albuquerque Center
Fri 03:41:37 PM 35.6333 -107.9167 75° East 450 518 37,000  Level Albuquerque Center
Fri 03:42:38 PM 35.6706 -107.7539 74° East 446 513 37,000  Level Albuquerque Center
Fri 03:43:40 PM 35.7017 -107.6133 75° East 446 513 37,000  Level Albuquerque Center
Fri 03:44:42 PM 35.7358 -107.4481 76° East 447 514 37,000  Level Albuquerque Center
Fri 03:45:44 PM 35.7561 -107.3050 80° East 446 513 37,000  Level Albuquerque Center
Fri 03:46:45 PM 35.7600 -107.1381 88° East 437 503 37,000  Level Albuquerque Center
Fri 03:47:47 PM 35.7475 -106.9953 96° East 437 503 37,000  Level Albuquerque Center
Fri 03:48:49 PM 35.7228 -106.8311 100° East 438 504 37,000  Level Albuquerque Center
Fri 03:49:51 PM 35.7064 -106.6883 98° East 439 505 37,000  Level Albuquerque Center
Fri 03:50:53 PM 35.6875 -106.5475 99° East 437 503 37,000  Level Albuquerque Center
Fri 03:51:55 PM 35.6669 -106.3822 99° East 438 504 37,000  Level Albuquerque Center
Fri 03:52:56 PM 35.6492 -106.2397 99° East 439 505 37,000  Level Albuquerque Center
Fri 03:53:58 PM 35.6267 -106.0792 100° East 442 509 37,000  Level Albuquerque Center
Fri 03:55:00 PM 35.6053 -105.9281 100° East 446 513 37,000  Level Albuquerque Center
Fri 03:56:02 PM 35.5847 -105.7719 99° East 440 506 37,000  Level Albuquerque Center
Fri 03:57:04 PM 35.5633 -105.6219 100° East 441 507 37,000  Level Albuquerque Center
Fri 03:58:06 PM 35.5406 -105.4736 101° East 439 505 37,000  Level Albuquerque Center
Fri 03:59:08 PM 35.5183 -105.3253 100° East 438 504 37,000  Level Albuquerque Center
Fri 04:00:09 PM 35.4933 -105.1517 100° East 439 505 37,000  Level Albuquerque Center
Fri 04:01:11 PM 35.4736 -105.0044 99° East 437 503 37,000  Level Albuquerque Center
Fri 04:02:13 PM 35.4522 -104.8575 100° East 435 501 37,000  Level Albuquerque Center
Fri 04:03:15 PM 35.4317 -104.7106 100° East 434 499 37,000  Level Albuquerque Center
Fri 04:04:17 PM 35.4094 -104.5633 100° East 434 499 37,000  Level Albuquerque Center
Fri 04:05:19 PM 35.3883 -104.4164 100° East 433 498 37,000  Level Albuquerque Center
Fri 04:06:20 PM 35.3678 -104.2681 100° East 433 498 37,000  Level Albuquerque Center
Fri 04:07:22 PM 35.3467 -104.1136 99° East 442 509 37,000  Level Albuquerque Center
Fri 04:08:24 PM 35.3211 -103.9650 102° East 434 499 37,000  Level Albuquerque Center
Fri 04:09:26 PM 35.2981 -103.8186 101° East 434 499 37,000  Level Albuquerque Center
Fri 04:10:27 PM 35.2756 -103.6717 101° East 434 499 37,000  Level Albuquerque Center
Fri 04:11:29 PM 35.2531 -103.5250 101° East 435 501 37,000  Level Albuquerque Center
Fri 04:12:31 PM 35.2292 -103.3778 101° East 437 503 37,000  Level Albuquerque Center
Fri 04:13:33 PM 35.2017 -103.2044 101° East 441 507 37,000  Level Albuquerque Center
Fri 04:14:35 PM 35.1778 -103.0553 101° East 443 510 37,000  Level Albuquerque Center
Fri 04:15:36 PM 35.1542 -102.9131 101° East 444 511 37,000  Level Albuquerque Center
Fri 04:16:38 PM 35.1297 -102.7675 102° East 441 507 37,000  Level Albuquerque Center
Fri 04:17:40 PM 35.1058 -102.6214 101° East 441 507 37,000  Level Albuquerque Center
Fri 04:18:42 PM 35.0817 -102.4767 101° East 439 505 37,000  Level Albuquerque Center
Fri 04:19:43 PM 35.0528 -102.3042 102° East 436 502 37,000  Level Albuquerque Center
Fri 04:20:45 PM 35.0283 -102.1625 102° East 431 496 37,000  Level Albuquerque Center
Fri 04:21:47 PM 35.0036 -102.0214 102° East 429 494 37,000  Level Albuquerque Center
Fri 04:22:49 PM 34.9797 -101.8811 102° East 428 493 37,000  Level Albuquerque Center
Fri 04:23:51 PM 34.9556 -101.7400 102° East 430 495 37,000  Level Albuquerque Center
Fri 04:24:52 PM 34.9258 -101.5678 102° East 437 503 37,000  Level Albuquerque Center
Fri 04:25:54 PM 34.9014 -101.4258 102° East 435 501 37,000  Level Albuquerque Center
Fri 04:26:56 PM 34.8767 -101.2831 102° East 434 499 37,000  Level Albuquerque Center
Fri 04:27:58 PM 34.8517 -101.1406 102° East 434 499 37,000  Level Albuquerque Center
Fri 04:29:00 PM 34.8261 -100.9972 102° East 435 501 37,000  Level Albuquerque Center
Fri 04:30:01 PM 34.8000 -100.8533 102° East 436 502 37,000  Level Albuquerque Center
Fri 04:31:03 PM 34.7694 -100.6806 102° East 437 503 37,000  Level Albuquerque Center
Fri 04:32:05 PM 34.7442 -100.5367 102° East 437 503 37,000  Level Albuquerque Center
Fri 04:33:07 PM 34.7169 -100.3928 103° East 438 504 37,000  Level Albuquerque Center
Fri 04:34:08 PM 34.6894 -100.2492 103° East 437 503 37,000  Level Albuquerque Center
Fri 04:35:10 PM 34.6625 -100.1064 103° East 436 502 37,000  Level Albuquerque Center
Fri 04:36:12 PM 34.6369 -99.9642 102° East 434 499 37,000  Level Albuquerque Center
Fri 04:37:14 PM 34.6092 -99.8228 103° East 432 497 37,000  Level Albuquerque Center
Fri 04:38:15 PM 34.5775 -99.6536 103° East 430 495 37,000  Level Albuquerque Center
Fri 04:39:17 PM 34.5497 -99.5128 103° East 429 494 37,000  Level Albuquerque Center
Fri 04:40:19 PM 34.5231 -99.3722 103° East 428 493 37,000  Level Albuquerque Center
Fri 04:41:29 PM 34.4881 -99.2047 104° East 417 480 37,000  Level Fort Worth Center
Fri 04:42:29 PM 34.4608 -99.0633 103° East 423 487 37,000  Level Fort Worth Center
Fri 04:43:29 PM 34.4314 -98.9192 104° East 418 481 37,000  Level Fort Worth Center
Fri 04:44:29 PM 34.4036 -98.7828 104° East 418 481 37,000  Level Fort Worth Center
Fri 04:45:29 PM 34.3781 -98.6464 103° East 413 475 37,000  Level Fort Worth Center
Fri 04:46:29 PM 34.3481 -98.5078 105° East 413 475 37,000  Level Fort Worth Center
Fri 04:47:29 PM 34.3219 -98.3742 103° East 413 475 37,000  Level Fort Worth Center
Fri 04:48:29 PM 34.2917 -98.2356 105° East 413 475 37,000  Level Fort Worth Center
Fri 04:49:29 PM 34.2633 -98.0944 104° East 413 475 37,000  Level Fort Worth Center
Fri 04:50:29 PM 34.2347 -97.9561 104° East 419 482 37,000  Level Fort Worth Center
Fri 04:51:29 PM 34.2039 -97.8178 105° East 419 482 37,000  Level Fort Worth Center
Fri 04:52:29 PM 34.1750 -97.6794 104° East 419 482 37,000  Level Fort Worth Center
Fri 04:53:29 PM 34.1461 -97.5364 104° East 419 482 37,000  Level Fort Worth Center
Fri 04:54:29 PM 34.1169 -97.3983 104° East 419 482 37,000  Level Fort Worth Center
Fri 04:55:53 PM 34.0897 -97.2356 101° East 435 501 37,000 458 Level Fort Worth Center
Fri 04:56:53 PM 34.0539 -97.0675 104° East 435 501 38,100 1,000 Climbing Fort Worth Center
Fri 04:57:53 PM 34.0222 -96.9272 105° East 430 495 39,000 450 Climbing Fort Worth Center
Fri 04:58:53 PM 33.9903 -96.7897 106° East 430 495 39,000  Level Fort Worth Center
Fri 04:59:53 PM 33.9644 -96.6522 103° East 430 495 39,000  Level Fort Worth Center
Fri 05:00:53 PM 33.9300 -96.5097 106° East 430 495 39,000  Level Fort Worth Center
Fri 05:01:53 PM 33.9019 -96.3675 103° East 430 495 39,000  Level Fort Worth Center
Fri 05:02:53 PM 33.8694 -96.2278 106° East 430 495 39,000  Level Fort Worth Center
Fri 05:03:53 PM 33.8367 -96.0856 105° East 430 495 39,000  Level Fort Worth Center
Fri 05:04:53 PM 33.8039 -95.9461 106° East 430 495 39,000  Level Fort Worth Center
Fri 05:05:53 PM 33.7728 -95.8042 105° East 430 495 39,000  Level Fort Worth Center
Fri 05:06:53 PM 33.7397 -95.6650 106° East 430 495 39,000  Level Fort Worth Center
Fri 05:07:53 PM 33.6997 -95.5086 107° East 435 501 39,000  Level Fort Worth Center
Fri 05:08:53 PM 33.6706 -95.3669 104° East 435 501 39,000  Level Fort Worth Center
Fri 05:09:53 PM 33.6389 -95.2228 105° East 435 501 39,000  Level Fort Worth Center
Fri 05:10:53 PM 33.6094 -95.0964 106° East 435 501 39,000  Level Fort Worth Center
Fri 05:11:53 PM 33.5714 -94.9553 108° East 435 501 39,000  Level Fort Worth Center
Fri 05:12:53 PM 33.5411 -94.8092 104° East 435 501 39,000  Level Fort Worth Center
Fri 05:13:53 PM 33.5047 -94.6633 107° East 441 507 39,000  Level Fort Worth Center
Fri 05:14:53 PM 33.4722 -94.5147 105° East 451 519 39,000  Level Fort Worth Center
Fri 05:15:53 PM 33.4436 -94.3714 103° East 451 519 39,000  Level Fort Worth Center
Fri 05:16:53 PM 33.4150 -94.2256 103° East 451 519 39,000  Level Fort Worth Center
Fri 05:17:53 PM 33.3864 -94.0872 104° East 444 511 39,000  Level Fort Worth Center
Fri 05:18:53 PM 33.3550 -93.9344 104° East 449 517 39,000  Level Fort Worth Center
Fri 05:19:53 PM 33.3189 -93.7642 104° East 466 536 39,000  Level Fort Worth Center
Fri 05:20:53 PM 33.2897 -93.6189 103° East 474 545 39,000  Level Fort Worth Center
Fri 05:21:53 PM 33.2603 -93.4786 104° East 453 521 39,000  Level Fort Worth Center
Fri 05:22:53 PM 33.2286 -93.3358 105° East 448 516 39,000  Level Fort Worth Center
Fri 05:23:53 PM 33.1989 -93.1933 104° East 448 516 39,000  Level Fort Worth Center
Fri 05:24:53 PM 33.1689 -93.0483 104° East 448 516 39,000  Level Fort Worth Center
Fri 05:25:53 PM 33.1389 -92.9058 104° East 448 516 39,000  Level Fort Worth Center
Fri 05:26:53 PM 33.1086 -92.7636 104° East 448 516 39,000  Level Fort Worth Center
Fri 05:27:53 PM 33.0781 -92.6214 104° East 448 516 39,000  Level Fort Worth Center
Fri 05:28:53 PM 33.0456 -92.4794 105° East 448 516 39,000  Level Fort Worth Center
Fri 05:29:53 PM 33.0150 -92.3400 105° East 448 516 39,000  Level Fort Worth Center
Fri 05:31:26 PM 32.9664 -92.1278 105° East 424 488 39,000  Level Memphis Center
Fri 05:32:26 PM 32.9306 -91.9858 107° East 424 488 39,000  Level Memphis Center
Fri 05:33:26 PM 32.9011 -91.8492 104° East 429 494 39,000  Level Memphis Center
Fri 05:34:26 PM 32.8672 -91.7078 106° East 429 494 39,000  Level Memphis Center
Fri 05:35:26 PM 32.8353 -91.5689 105° East 434 499 39,000  Level Memphis Center
Fri 05:36:26 PM 32.8031 -91.4325 106° East 434 499 39,000  Level Memphis Center
Fri 05:37:26 PM 32.7708 -91.2911 105° East 434 499 39,000  Level Memphis Center
Fri 05:38:26 PM 32.7383 -91.1500 105° East 434 499 39,000  Level Memphis Center
Fri 05:39:26 PM 32.7058 -91.0067 105° East 441 507 39,000  Level Memphis Center
Fri 05:40:26 PM 32.6731 -90.8656 105° East 441 507 39,000  Level Memphis Center
Fri 05:41:26 PM 32.6381 -90.7225 106° East 441 507 39,000  Level Memphis Center
Fri 05:42:26 PM 32.6050 -90.5842 106° East 436 502 39,000  Level Memphis Center
Fri 05:43:26 PM 32.5717 -90.4436 106° East 436 502 39,000  Level Memphis Center
Fri 05:44:26 PM 32.5425 -90.3178 105° East 436 502 39,000  Level Memphis Center
Fri 05:45:26 PM 32.5089 -90.1775 106° East 441 507 39,000  Level Memphis Center
Fri 05:46:26 PM 32.4669 -90.0397 110° East 436 502 39,000  Level Memphis Center
Fri 05:47:26 PM 32.4228 -89.9019 111° Southeast 442 509 39,000  Level Memphis Center
Fri 05:48:26 PM 32.3803 -89.7619 110° East 449 517 39,000  Level Memphis Center
Fri 05:49:26 PM 32.3378 -89.6247 110° East 449 517 39,000  Level Memphis Center
Fri 05:50:26 PM 32.2950 -89.4825 110° East 449 517 39,000  Level Memphis Center
Fri 05:51:26 PM 32.2503 -89.3428 111° Southeast 449 517 39,000  Level Memphis Center
Fri 05:52:26 PM 32.2072 -89.2033 110° East 449 517 39,000  Level Memphis Center
Fri 05:53:26 PM 32.1578 -89.0469 110° East 456 525 39,000  Level Memphis Center
Fri 05:54:26 PM 32.1122 -88.9053 111° Southeast 456 525 39,000  Level Memphis Center
Fri 05:55:26 PM 32.0667 -88.7614 110° East 461 531 39,000  Level Memphis Center
Fri 05:57:55 PM 31.9756 -88.4214 107° East 476 548 39,000  Level Atlanta Center
Fri 05:58:55 PM 31.9414 -88.2703 105° East 476 548 39,000  Level Atlanta Center
Fri 05:59:55 PM 31.9108 -88.1197 103° East 476 548 39,000  Level Atlanta Center
Fri 06:00:55 PM 31.8783 -87.9689 104° East 476 548 39,000  Level Atlanta Center
Fri 06:03:14 PM 31.8056 -87.5981 103° East 461 531 39,000  Level Jacksonville Center
Fri 06:04:14 PM 31.7781 -87.4428 102° East 475 547 39,000  Level Jacksonville Center
Fri 06:05:14 PM 31.7453 -87.3044 106° East 475 547 39,000  Level Jacksonville Center
Fri 06:06:14 PM 31.7067 -87.1536 107° East 480 552 39,000  Level Jacksonville Center
Fri 06:07:14 PM 31.6550 -87.0097 113° Southeast 480 552 39,000  Level Jacksonville Center
Fri 06:08:14 PM 31.6011 -86.8683 114° Southeast 480 552 39,000  Level Jacksonville Center
Fri 06:09:14 PM 31.5469 -86.7247 114° Southeast 475 547 39,000  Level Jacksonville Center
Fri 06:10:14 PM 31.4928 -86.5811 114° Southeast 475 547 39,000  Level Jacksonville Center
Fri 06:11:14 PM 31.4361 -86.4450 116° Southeast 475 547 39,000  Level Jacksonville Center
Fri 06:12:14 PM 31.3558 -86.3253 128° Southeast 470 541 39,000  Level Jacksonville Center
Fri 06:13:14 PM 31.2714 -86.2103 131° Southeast 465 535 39,000  Level Jacksonville Center
Fri 06:14:14 PM 31.1867 -86.0931 130° Southeast 465 535 39,000  Level Jacksonville Center
Fri 06:15:14 PM 31.1039 -85.9789 130° Southeast 465 535 39,000  Level Jacksonville Center
Fri 06:16:14 PM 31.0253 -85.8597 128° Southeast 465 535 39,000  Level Jacksonville Center
Fri 06:17:14 PM 30.9403 -85.7386 129° Southeast 465 535 39,000  Level Jacksonville Center
Fri 06:18:14 PM 30.8575 -85.6197 129° Southeast 465 535 39,000 -450 Level Jacksonville Center
Fri 06:19:14 PM 30.7742 -85.5014 129° Southeast 465 535 38,100 -950 Descending Jacksonville Center
Fri 06:20:14 PM 30.6994 -85.3786 125° Southeast 460 529 37,100 -950 Descending Jacksonville Center
Fri 06:21:14 PM 30.6625 -85.2328 106° East 460 529 36,200 -1,000 Descending Jacksonville Center
Fri 06:22:14 PM 30.6528 -85.0781 94° East 460 529 35,100 -1,300 Descending Jacksonville Center
Fri 06:23:14 PM 30.6408 -84.9231 95° East 469 540 33,600 -1,450 Descending Jacksonville Center
Fri 06:24:14 PM 30.6286 -84.7658 95° East 474 545 32,200 -1,450 Descending Jacksonville Center
Fri 06:25:14 PM 30.6183 -84.6089 94° East 486 559 30,700 -1,350 Descending Jacksonville Center
Fri 06:26:14 PM 30.6056 -84.4494 95° East 491 565 29,500 -1,150 Descending Jacksonville Center
Fri 06:27:14 PM 30.5950 -84.2972 95° East 486 559 28,400 -1,100 Descending Jacksonville Center
Fri 06:28:14 PM 30.5839 -84.1569 95° East 457 526 27,300 -1,050 Descending Jacksonville Center
Fri 06:29:14 PM 30.5706 -84.0097 96° East 450 518 26,300 -1,000 Descending Jacksonville Center
Fri 06:30:14 PM 30.5614 -83.8719 94° East 445 512 25,300 -1,100 Descending Jacksonville Center
Fri 06:31:14 PM 30.5519 -83.7175 94° East 440 506 24,100 -650 Descending Jacksonville Center
Fri 06:32:14 PM 30.5422 -83.5969 95° East 430 495 24,000 -50 Descending Jacksonville Center
Fri 06:33:14 PM 30.5344 -83.4642 94° East 424 488 24,000 -200 Level Jacksonville Center
Fri 06:34:14 PM 30.5308 -83.3267 92° East 424 488 23,600 -500 Descending Jacksonville Center
Fri 06:35:14 PM 30.5250 -83.1917 93° East 419 482 23,000 -600 Descending Jacksonville Center
Fri 06:36:14 PM 30.5211 -83.0614 92° East 419 482 22,400 -1,400 Descending Jacksonville Center
Fri 06:37:14 PM 30.5169 -82.9311 92° East 414 476 20,200 -2,200 Descending Jacksonville Center
Fri 06:38:14 PM 30.5128 -82.8008 92° East 408 470 18,000 -2,304 Descending Jacksonville Center
Fri 06:39:06 PM 30.5086 -82.6828 92° East 392 451 15,900 -2,230 Descending Jacksonville Center
Fri 06:40:07 PM 30.5083 -82.5597 90° East 378 435 13,800 -1,734 Descending Jacksonville Center
Fri 06:41:14 PM 30.5414 -82.4486 71° East 355 409 12,200 -1,323 Descending Jacksonville Center
Fri 06:42:14 PM 30.5722 -82.3472 71° East 339 390 11,000 -1,100 Descending Jacksonville Center
Fri 06:43:14 PM 30.5697 -82.2508 92° East 310 357 10,000 -1,131 Descending Jacksonville Center
Fri 06:44:16 PM 30.5631 -82.1567 95° East 252 290 8,700 -1,700 Descending Jacksonville Center
Fri 06:45:14 PM 30.5583 -82.0772 94° East 263 303 6,600 -2,085 Descending Jacksonville Center
Fri 06:46:14 PM 30.5556 -81.9928 92° East 263 303 4,600 -1,250 Descending Jacksonville Center
Fri 06:47:14 PM 30.5508 -81.9206 94° East 231 266 4,100 -800 Descending Jacksonville Center
Fri 06:48:14 PM 30.5461 -81.8553 95° East 198 228 3,000 -1,038 Descending Jacksonville Center
Fri 06:49:27 PM 30.5436 -81.7806 92° East 194 223 1,800 -940 Descending Jacksonville Center
Fri 06:50:28 PM 30.5181 -81.7400 126° Southeast 143 165 900 -843 Descending Jacksonville Center
Fri 06:51:28 PM 30.4906 -81.7042 132° Southeast 135 155 100 -800 Descending Jacksonville Center
Fri 06:53:00 PM 30.4941 -81.6879 115° Southeast  Level Estimated

Login

Don't have an account? Register now (free) for customized features, flight alerts, and more!